RJFC(METAR)
05/21 19:00
RJFC 211000Z 02014KT 5000 RA FEW010 BKN020 BKN035 19/17 Q1007 RMK
A2976=
戻る
トップページへ戻る
IMOC Co,.Ltd.